createdAt,value
2018-11-02T00:00:49.826Z,984.750
2018-11-02T00:02:50.041Z,984.750
2018-11-02T00:04:49.665Z,984.778
2018-11-02T00:06:50.133Z,984.847
2018-11-02T00:08:50.432Z,984.889
2018-11-02T00:10:50.634Z,984.927
2018-11-02T00:12:49.843Z,984.957
2018-11-02T00:14:50.020Z,984.979
2018-11-02T00:16:50.496Z,985.011
2018-11-02T00:18:49.737Z,985.039
2018-11-02T00:20:50.015Z,985.043
2018-11-02T00:22:50.383Z,985.036
2018-11-02T00:24:49.648Z,985.061
2018-11-02T00:26:50.061Z,985.083
2018-11-02T00:28:50.269Z,985.139
2018-11-02T00:30:50.486Z,985.275
2018-11-02T00:32:49.822Z,985.334
2018-11-02T00:34:50.440Z,985.444
2018-11-02T00:36:49.899Z,985.450
2018-11-02T00:38:50.109Z,985.442
2018-11-02T00:40:50.349Z,985.447
2018-11-02T00:42:50.536Z,985.410
2018-11-02T00:44:49.804Z,985.416
2018-11-02T00:46:50.158Z,985.446
2018-11-02T00:48:50.413Z,985.474
2018-11-02T00:50:49.677Z,985.503
2018-11-02T00:52:50.461Z,985.531
2018-11-02T00:54:49.751Z,985.559
2018-11-02T00:56:50.118Z,985.579
2018-11-02T00:58:50.358Z,985.597
2018-11-02T01:00:50.218Z,985.636
2018-11-02T01:02:49.702Z,985.628
2018-11-02T01:04:50.225Z,985.618
2018-11-02T01:06:49.650Z,985.633
2018-11-02T01:08:49.839Z,985.639
2018-11-02T01:10:50.528Z,985.654
2018-11-02T01:12:49.935Z,985.639
2018-11-02T01:14:50.149Z,985.639
2018-11-02T01:16:51.037Z,985.640
2018-11-02T01:18:50.236Z,985.620
2018-11-02T01:20:51.064Z,985.614
2018-11-02T01:22:50.592Z,985.623
2018-11-02T01:24:49.819Z,985.640
2018-11-02T01:26:50.143Z,985.660
2018-11-02T01:28:50.346Z,985.672
2018-11-02T01:30:50.076Z,985.668
2018-11-02T01:32:50.362Z,985.688
2018-11-02T01:34:49.795Z,985.674
2018-11-02T01:36:50.358Z,985.677
2018-11-02T01:38:50.630Z,985.684
2018-11-02T01:40:50.285Z,985.688
2018-11-02T01:42:49.636Z,985.677
2018-11-02T01:44:49.861Z,985.664
2018-11-02T01:46:50.239Z,985.665
2018-11-02T01:48:50.376Z,985.662
2018-11-02T01:50:49.715Z,985.606
2018-11-02T01:52:49.946Z,985.518
2018-11-02T01:54:50.070Z,985.466
2018-11-02T01:56:50.521Z,985.440
2018-11-02T01:58:49.801Z,985.447
2018-11-02T02:00:49.946Z,985.447
2018-11-02T02:02:50.172Z,985.459
2018-11-02T02:04:49.619Z,985.477
2018-11-02T02:06:49.947Z,985.511
2018-11-02T02:08:50.178Z,985.539
2018-11-02T02:10:50.381Z,985.567
2018-11-02T02:12:50.930Z,985.566
2018-11-02T02:14:50.530Z,985.596
2018-11-02T02:16:50.231Z,985.608
2018-11-02T02:18:50.607Z,985.589
2018-11-02T02:20:49.820Z,985.565
2018-11-02T02:22:52.208Z,985.563
2018-11-02T02:24:50.502Z,985.608
2018-11-02T02:26:50.123Z,985.635
2018-11-02T02:28:50.275Z,985.658
2018-11-02T02:30:50.533Z,985.630
2018-11-02T02:32:50.385Z,985.632
2018-11-02T02:34:50.220Z,985.618
2018-11-02T02:36:49.733Z,985.598
2018-11-02T02:38:50.117Z,985.578
2018-11-02T02:40:50.263Z,985.578
2018-11-02T02:42:50.979Z,985.566
2018-11-02T02:44:50.189Z,985.559
2018-11-02T02:46:49.688Z,985.556
2018-11-02T02:48:49.875Z,985.581
2018-11-02T02:50:50.139Z,985.660
2018-11-02T02:52:50.776Z,985.660
2018-11-02T02:54:50.374Z,985.777
2018-11-02T02:56:49.911Z,985.774
2018-11-02T02:58:50.146Z,985.821
2018-11-02T03:00:50.474Z,985.855
2018-11-02T03:02:50.244Z,985.899
2018-11-02T03:04:49.962Z,985.921
2018-11-02T03:06:50.416Z,985.960
2018-11-02T03:08:50.250Z,985.943
2018-11-02T03:10:51.338Z,985.941
2018-11-02T03:12:50.559Z,985.989
2018-11-02T03:14:49.777Z,986.024
2018-11-02T03:16:50.137Z,986.029
2018-11-02T03:18:50.783Z,986.043
2018-11-02T03:20:49.826Z,986.033
2018-11-02T03:22:50.101Z,986.002
2018-11-02T03:24:50.349Z,985.977
2018-11-02T03:26:49.943Z,985.965
2018-11-02T03:28:50.142Z,985.968
2018-11-02T03:30:50.383Z,986.026
2018-11-02T03:32:50.641Z,986.082
2018-11-02T03:34:50.227Z,986.200
2018-11-02T03:36:49.755Z,986.263
2018-11-02T03:38:49.997Z,986.332
2018-11-02T03:40:50.194Z,986.390
2018-11-02T03:42:50.597Z,986.452
2018-11-02T03:44:49.868Z,986.477
2018-11-02T03:46:50.346Z,986.491
2018-11-02T03:48:50.562Z,986.494
2018-11-02T03:50:49.846Z,986.524
2018-11-02T03:52:50.075Z,986.529
2018-11-02T03:54:50.971Z,986.512
2018-11-02T03:56:51.181Z,986.451
2018-11-02T03:58:50.383Z,986.400
2018-11-02T04:00:50.658Z,986.375
2018-11-02T04:02:49.867Z,986.378
2018-11-02T04:04:49.679Z,986.380
2018-11-02T04:06:50.216Z,986.357
2018-11-02T04:08:50.559Z,986.306
2018-11-02T04:10:49.940Z,986.307
2018-11-02T04:12:50.170Z,986.323
2018-11-02T04:14:50.495Z,986.328
2018-11-02T04:16:50.181Z,986.316
2018-11-02T04:18:50.415Z,986.298
2018-11-02T04:20:49.680Z,986.275
2018-11-02T04:22:50.028Z,986.277
2018-11-02T04:24:50.208Z,986.344
2018-11-02T04:26:50.610Z,986.344
2018-11-02T04:28:49.789Z,986.463
2018-11-02T04:30:50.292Z,986.463
2018-11-02T04:32:50.041Z,986.510
2018-11-02T04:34:50.482Z,986.517
2018-11-02T04:36:49.753Z,986.515
2018-11-02T04:38:49.945Z,986.541
2018-11-02T04:40:50.182Z,986.578
2018-11-02T04:42:50.590Z,986.617
2018-11-02T04:44:50.380Z,986.617
2018-11-02T04:46:50.077Z,986.732
2018-11-02T04:48:50.336Z,986.781
2018-11-02T04:50:50.718Z,986.778
2018-11-02T04:52:50.248Z,986.775
2018-11-02T04:54:50.916Z,986.740
2018-11-02T04:56:49.961Z,986.735
2018-11-02T04:58:50.162Z,986.748
2018-11-02T05:00:50.331Z,986.856
2018-11-02T05:02:49.739Z,986.885
2018-11-02T05:04:50.801Z,986.895
2018-11-02T05:06:50.461Z,986.897
2018-11-02T05:08:50.499Z,986.897
2018-11-02T05:10:49.819Z,986.898
2018-11-02T05:12:50.157Z,986.902
2018-11-02T05:14:50.381Z,986.922
2018-11-02T05:16:49.908Z,986.939
2018-11-02T05:18:50.020Z,986.957
2018-11-02T05:20:50.181Z,987.022
2018-11-02T05:22:50.208Z,987.101
2018-11-02T05:24:50.275Z,987.197
2018-11-02T05:26:49.939Z,987.233
2018-11-02T05:28:49.977Z,987.245
2018-11-02T05:30:49.977Z,987.231
2018-11-02T05:32:50.263Z,987.244
2018-11-02T05:34:49.637Z,987.266
2018-11-02T05:36:49.905Z,987.285
2018-11-02T05:38:49.957Z,987.267
2018-11-02T05:40:49.919Z,987.270
2018-11-02T05:42:49.942Z,987.315
2018-11-02T05:44:49.972Z,987.375
2018-11-02T05:46:50.207Z,987.389
2018-11-02T05:48:50.274Z,987.513
2018-11-02T05:50:50.327Z,987.571
2018-11-02T05:52:50.339Z,987.619
2018-11-02T05:54:50.363Z,987.665
2018-11-02T05:56:50.565Z,987.740
2018-11-02T05:58:49.629Z,987.786
2018-11-02T06:00:49.819Z,987.842
2018-11-02T06:02:49.844Z,987.860
2018-11-02T06:04:50.217Z,987.862
2018-11-02T06:06:50.650Z,987.845
2018-11-02T06:08:50.545Z,987.866
2018-11-02T06:10:50.636Z,987.930
2018-11-02T06:12:49.717Z,987.981
2018-11-02T06:14:49.806Z,987.997
2018-11-02T06:16:50.800Z,987.985
2018-11-02T06:18:49.914Z,987.953
2018-11-02T06:20:49.983Z,987.984
2018-11-02T06:22:49.978Z,988.027
2018-11-02T06:24:50.051Z,988.082
2018-11-02T06:26:50.609Z,988.144
2018-11-02T06:28:50.274Z,988.175
2018-11-02T06:30:50.415Z,988.203
2018-11-02T06:32:51.063Z,988.214
2018-11-02T06:34:49.656Z,988.253
2018-11-02T06:36:50.119Z,988.306
2018-11-02T06:38:50.801Z,988.357
2018-11-02T06:40:50.226Z,988.375
2018-11-02T06:42:50.264Z,988.414
2018-11-02T06:44:50.756Z,988.490
2018-11-02T06:46:49.767Z,988.532
2018-11-02T06:48:50.053Z,988.583
2018-11-02T06:50:50.586Z,988.597
2018-11-02T06:52:50.369Z,988.597
2018-11-02T07:04:50.427Z,988.709
2018-11-02T07:06:50.599Z,988.719
2018-11-02T07:08:49.658Z,988.743
2018-11-02T07:10:49.689Z,988.740
2018-11-02T07:12:49.873Z,988.755
2018-11-02T07:14:49.908Z,988.779
2018-11-02T07:16:50.110Z,988.797
2018-11-02T07:18:50.833Z,988.823
2018-11-02T07:20:49.697Z,988.850
2018-11-02T07:22:49.709Z,988.866
2018-11-02T07:24:49.877Z,988.866
2018-11-02T07:26:50.199Z,988.926
2018-11-02T07:28:50.723Z,988.945
2018-11-02T07:30:50.255Z,988.951
2018-11-02T07:32:50.231Z,989.003
2018-11-02T07:34:49.740Z,989.062
2018-11-02T07:36:50.106Z,989.114
2018-11-02T07:38:50.227Z,989.199
2018-11-02T07:40:50.386Z,989.257
2018-11-02T07:42:50.420Z,989.285
2018-11-02T07:44:50.477Z,989.316
2018-11-02T07:46:49.979Z,989.344
2018-11-02T07:48:50.205Z,989.359
2018-11-02T07:50:50.465Z,989.372
2018-11-02T07:52:50.536Z,989.386
2018-11-02T07:54:50.263Z,989.394
2018-11-02T07:56:50.553Z,989.390
2018-11-02T07:58:49.883Z,989.392
2018-11-02T08:00:50.180Z,989.392
2018-11-02T08:04:50.514Z,989.407
2018-11-02T08:06:50.132Z,989.429
2018-11-02T08:08:50.205Z,989.403
2018-11-02T08:10:50.270Z,989.364
2018-11-02T08:12:50.338Z,989.349
2018-11-02T08:14:50.346Z,989.353
2018-11-02T08:16:49.719Z,989.343
2018-11-02T08:18:49.881Z,989.343
2018-11-02T08:20:50.090Z,989.345
2018-11-02T08:22:50.059Z,989.335
2018-11-02T08:24:50.134Z,989.332
2018-11-02T08:26:50.376Z,989.332
2018-11-02T08:28:50.379Z,989.280
2018-11-02T08:30:49.656Z,989.302
2018-11-02T08:32:49.878Z,989.339
2018-11-02T08:34:50.338Z,989.298
2018-11-02T08:36:49.707Z,989.248
2018-11-02T08:38:49.893Z,989.231
2018-11-02T08:40:49.910Z,989.346
2018-11-02T08:42:50.136Z,989.396
2018-11-02T08:44:50.302Z,989.414
2018-11-02T08:46:49.736Z,989.385
2018-11-02T08:48:50.020Z,989.308
2018-11-02T08:50:50.241Z,989.252
2018-11-02T08:52:50.426Z,989.210
2018-11-02T08:54:49.618Z,989.239
2018-11-02T08:56:49.822Z,989.276
2018-11-02T08:58:50.938Z,989.281
2018-11-02T09:00:50.013Z,989.281
2018-11-02T09:02:50.339Z,989.213
2018-11-02T09:04:50.144Z,989.211
2018-11-02T09:06:49.853Z,989.211
2018-11-02T09:08:50.233Z,989.270
2018-11-02T09:10:50.262Z,989.274
2018-11-02T09:12:50.265Z,989.265
2018-11-02T09:14:50.326Z,989.299
2018-11-02T09:16:50.485Z,989.298
2018-11-02T09:18:50.553Z,989.289
2018-11-02T09:20:50.612Z,989.282
2018-11-02T09:22:49.727Z,989.289
2018-11-02T09:24:49.753Z,989.317
2018-11-02T09:26:50.036Z,989.336
2018-11-02T09:28:50.212Z,989.336
2018-11-02T09:30:50.298Z,989.351
2018-11-02T09:32:50.359Z,989.317
2018-11-02T09:34:49.780Z,989.265
2018-11-02T09:36:50.216Z,989.262
2018-11-02T09:38:50.450Z,989.270
2018-11-02T09:40:49.822Z,989.333
2018-11-02T09:42:50.509Z,989.326
2018-11-02T09:44:50.309Z,989.313
2018-11-02T09:46:49.872Z,989.314
2018-11-02T09:48:50.190Z,989.304
2018-11-02T09:50:50.473Z,989.293
2018-11-02T09:52:49.751Z,989.292
2018-11-02T09:54:50.005Z,989.312
2018-11-02T09:56:50.488Z,989.309
2018-11-02T09:58:49.808Z,989.317
2018-11-02T10:00:50.083Z,989.315
2018-11-02T10:02:50.526Z,989.282
2018-11-02T10:04:50.279Z,989.250
2018-11-02T10:06:49.783Z,989.254
2018-11-02T10:08:50.040Z,989.241
2018-11-02T10:10:50.370Z,989.251
2018-11-02T10:12:49.619Z,989.276
2018-11-02T10:14:49.920Z,989.272
2018-11-02T10:16:50.275Z,989.267
2018-11-02T10:18:50.616Z,989.238
2018-11-02T10:20:49.840Z,989.222
2018-11-02T10:22:50.125Z,989.239
2018-11-02T10:24:50.270Z,989.233
2018-11-02T10:26:49.903Z,989.250
2018-11-02T10:28:50.154Z,989.225
2018-11-02T10:30:50.505Z,989.187
2018-11-02T10:32:49.809Z,989.183
2018-11-02T10:34:50.514Z,989.175
2018-11-02T10:36:50.012Z,989.165
2018-11-02T10:38:50.290Z,989.178
2018-11-02T10:40:50.584Z,989.182
2018-11-02T10:42:49.797Z,989.207
2018-11-02T10:44:50.337Z,989.206
2018-11-02T10:46:50.411Z,989.178
2018-11-02T10:48:49.644Z,989.149
2018-11-02T10:50:49.893Z,989.138
2018-11-02T10:52:50.169Z,989.110
2018-11-02T10:54:50.494Z,989.073
2018-11-02T10:56:49.951Z,989.034
2018-11-02T10:58:50.212Z,989.003
2018-11-02T11:00:51.254Z,989.003
2018-11-02T11:02:50.614Z,988.981
2018-11-02T11:04:50.192Z,988.958
2018-11-02T11:06:49.690Z,988.982
2018-11-02T11:08:50.020Z,988.989
2018-11-02T11:10:50.322Z,988.929
2018-11-02T11:12:51.766Z,988.856
2018-11-02T11:14:50.131Z,988.829
2018-11-02T11:16:49.643Z,988.784
2018-11-02T11:18:49.998Z,988.740
2018-11-02T11:20:50.347Z,988.751
2018-11-02T11:22:49.767Z,988.751
2018-11-02T11:24:50.083Z,988.752
2018-11-02T11:26:50.518Z,988.756
2018-11-02T11:28:50.178Z,988.756
2018-11-02T11:30:49.748Z,988.737
2018-11-02T11:32:50.087Z,988.742
2018-11-02T11:34:49.788Z,988.731
2018-11-02T11:36:50.634Z,988.740
2018-11-02T11:38:50.511Z,988.730
2018-11-02T11:40:50.558Z,988.712
2018-11-02T11:42:49.991Z,988.706
2018-11-02T11:44:50.298Z,988.716
2018-11-02T11:46:49.808Z,988.755
2018-11-02T11:48:51.185Z,988.808
2018-11-02T11:50:50.596Z,988.819
2018-11-02T11:52:49.917Z,988.811
2018-11-02T11:54:50.239Z,988.750
2018-11-02T11:56:49.894Z,988.726
2018-11-02T11:58:50.733Z,988.661
2018-11-02T12:00:49.880Z,988.633
2018-11-02T12:02:50.145Z,988.633
2018-11-02T12:04:50.292Z,988.647
2018-11-02T12:06:50.221Z,988.616
2018-11-02T12:08:50.760Z,988.635
2018-11-02T12:10:49.862Z,988.656
2018-11-02T12:12:50.124Z,988.727
2018-11-02T12:14:50.566Z,988.727
2018-11-02T12:16:49.991Z,988.905
2018-11-02T12:18:50.652Z,988.951
2018-11-02T12:20:50.056Z,988.972
2018-11-02T12:22:50.439Z,988.967
2018-11-02T12:24:49.758Z,988.970
2018-11-02T12:26:50.175Z,988.997
2018-11-02T12:28:50.747Z,989.022
2018-11-02T12:30:49.708Z,989.056
2018-11-02T12:32:50.273Z,989.084
2018-11-02T12:34:50.203Z,989.095
2018-11-02T12:36:50.502Z,989.094
2018-11-02T12:38:50.297Z,989.085
2018-11-02T12:40:49.660Z,989.001
2018-11-02T12:42:50.054Z,988.986
2018-11-02T12:44:49.856Z,988.986
2018-11-02T12:46:50.233Z,988.994
2018-11-02T12:48:51.493Z,988.994
2018-11-02T12:50:49.626Z,989.017
2018-11-02T12:52:49.949Z,989.061
2018-11-02T12:54:50.214Z,989.076
2018-11-02T12:56:49.820Z,989.092
2018-11-02T12:58:50.115Z,989.087
2018-11-02T13:00:50.436Z,989.058
2018-11-02T13:02:49.702Z,989.049
2018-11-02T13:04:50.252Z,989.032
2018-11-02T13:06:49.784Z,988.973
2018-11-02T13:08:50.004Z,988.888
2018-11-02T13:10:50.255Z,988.828
2018-11-02T13:12:49.694Z,988.785
2018-11-02T13:14:50.022Z,988.758
2018-11-02T13:16:50.436Z,988.757
2018-11-02T13:18:49.966Z,988.777
2018-11-02T13:20:49.826Z,988.782
2018-11-02T13:22:50.187Z,988.762
2018-11-02T13:24:50.488Z,988.755
2018-11-02T13:26:50.141Z,988.809
2018-11-02T13:28:49.809Z,988.820
2018-11-02T13:30:51.356Z,988.822
2018-11-02T13:32:50.629Z,988.837
2018-11-02T13:34:50.114Z,988.854
2018-11-02T13:36:50.910Z,988.883
2018-11-02T13:38:49.892Z,988.901
2018-11-02T13:40:50.567Z,988.937
2018-11-02T13:42:50.402Z,988.938
2018-11-02T13:44:50.000Z,988.898
2018-11-02T13:46:50.482Z,988.821
2018-11-02T13:48:49.778Z,988.784
2018-11-02T13:50:50.524Z,988.759
2018-11-02T13:52:50.661Z,988.786
2018-11-02T13:54:50.397Z,988.840
2018-11-02T13:56:50.002Z,988.901
2018-11-02T13:58:50.050Z,988.939
2018-11-02T14:00:50.067Z,989.034
2018-11-02T14:02:50.520Z,989.103
2018-11-02T14:04:50.439Z,989.164
2018-11-02T14:06:49.955Z,989.185
2018-11-02T14:08:50.201Z,989.316
2018-11-02T14:10:50.450Z,989.361
2018-11-02T14:12:49.807Z,989.367
2018-11-02T14:14:49.997Z,989.373
2018-11-02T14:16:50.396Z,989.383
2018-11-02T14:18:49.815Z,989.408
2018-11-02T14:20:50.118Z,989.416
2018-11-02T14:22:50.452Z,989.467
2018-11-02T14:24:49.864Z,989.536
2018-11-02T14:26:50.409Z,989.576
2018-11-02T14:28:49.869Z,989.648
2018-11-02T14:30:50.231Z,989.706
2018-11-02T14:32:50.603Z,989.729
2018-11-02T14:34:50.198Z,989.762
2018-11-02T14:36:49.672Z,989.773
2018-11-02T14:38:49.920Z,989.795
2018-11-02T14:40:50.403Z,989.822
2018-11-02T14:42:50.185Z,989.819
2018-11-02T14:44:50.381Z,989.765
2018-11-02T14:46:49.864Z,989.706
2018-11-02T14:48:50.100Z,989.658
2018-11-02T14:50:50.265Z,989.606
2018-11-02T14:52:50.613Z,989.585
2018-11-02T14:54:49.904Z,989.564
2018-11-02T14:56:50.229Z,989.541
2018-11-02T14:58:50.617Z,989.536
2018-11-02T15:00:50.413Z,989.451
2018-11-02T15:02:50.071Z,989.369
2018-11-02T15:04:49.720Z,989.309
2018-11-02T15:06:50.107Z,989.300
2018-11-02T15:08:50.334Z,989.321
2018-11-02T15:10:50.127Z,989.344
2018-11-02T15:12:49.965Z,989.445
2018-11-02T15:14:50.466Z,989.445
2018-11-02T15:16:49.979Z,989.511
2018-11-02T15:18:50.203Z,989.518
2018-11-02T15:20:50.794Z,989.523
2018-11-02T15:22:50.068Z,989.540
2018-11-02T15:24:50.418Z,989.533
2018-11-02T15:26:49.908Z,989.519
2018-11-02T15:28:50.304Z,989.522
2018-11-02T15:30:50.299Z,989.526
2018-11-02T15:32:49.803Z,989.515
2018-11-02T15:34:49.826Z,989.521
2018-11-02T15:36:50.444Z,989.549
2018-11-02T15:38:49.786Z,989.568
2018-11-02T15:40:50.337Z,989.569
2018-11-02T15:42:49.791Z,989.555
2018-11-02T15:44:50.500Z,989.547
2018-11-02T15:46:50.362Z,989.550
2018-11-02T15:48:50.571Z,989.597
2018-11-02T15:50:50.387Z,989.597
2018-11-02T15:52:49.798Z,989.656
2018-11-02T15:54:50.145Z,989.674
2018-11-02T15:56:50.528Z,989.702
2018-11-02T15:58:49.819Z,989.714
2018-11-02T16:00:50.096Z,989.764
2018-11-02T16:02:50.463Z,989.811
2018-11-02T16:04:50.060Z,989.881
2018-11-02T16:06:50.805Z,989.942
2018-11-02T16:08:50.555Z,989.972
2018-11-02T16:10:49.793Z,990.010
2018-11-02T16:12:50.174Z,990.014
2018-11-02T16:14:50.439Z,990.014
2018-11-02T16:16:49.914Z,990.089
2018-11-02T16:18:50.151Z,990.127
2018-11-02T16:20:50.385Z,990.166
2018-11-02T16:22:50.567Z,990.253
2018-11-02T16:24:49.865Z,990.289
2018-11-02T16:26:50.371Z,990.346
2018-11-02T16:28:49.686Z,990.421
2018-11-02T16:30:49.900Z,990.471
2018-11-02T16:32:50.187Z,990.520
2018-11-02T16:34:49.924Z,990.542
2018-11-02T16:36:50.349Z,990.610
2018-11-02T16:38:49.637Z,990.668
2018-11-02T16:40:49.929Z,990.707
2018-11-02T16:42:50.212Z,990.761
2018-11-02T16:44:50.875Z,990.797
2018-11-02T16:46:50.220Z,990.822
2018-11-02T16:48:50.421Z,990.831
2018-11-02T16:50:49.648Z,990.833
2018-11-02T16:52:49.805Z,990.833
2018-11-02T16:54:50.037Z,990.878
2018-11-02T16:56:50.527Z,990.878
2018-11-02T16:58:49.871Z,991.041
2018-11-02T17:00:50.091Z,991.108
2018-11-02T17:02:50.395Z,991.148
2018-11-02T17:04:50.044Z,991.190
2018-11-02T17:06:49.854Z,991.212
2018-11-02T17:08:50.136Z,991.237
2018-11-02T17:10:50.356Z,991.302
2018-11-02T17:12:49.670Z,991.387
2018-11-02T17:14:49.886Z,991.435
2018-11-02T17:16:50.272Z,991.481
2018-11-02T17:18:50.415Z,991.503
2018-11-02T17:20:49.654Z,991.500
2018-11-02T17:22:49.884Z,991.507
2018-11-02T17:24:50.127Z,991.527
2018-11-02T17:26:50.580Z,991.513
2018-11-02T17:28:50.004Z,991.500
2018-11-02T17:30:50.330Z,991.506
2018-11-02T17:32:49.639Z,991.478
2018-11-02T17:34:50.070Z,991.449
2018-11-02T17:36:50.433Z,991.461
2018-11-02T17:38:49.980Z,991.490
2018-11-02T17:40:50.520Z,991.512
2018-11-02T17:42:49.846Z,991.507
2018-11-02T17:44:50.193Z,991.481
2018-11-02T17:46:50.590Z,991.481
2018-11-02T17:48:50.353Z,991.497
2018-11-02T17:50:49.885Z,991.497
2018-11-02T17:52:50.112Z,991.564
2018-11-02T17:54:50.418Z,991.588
2018-11-02T17:56:49.903Z,991.614
2018-11-02T17:58:50.425Z,991.646
2018-11-02T18:00:49.684Z,991.680
2018-11-02T18:02:50.000Z,991.703
2018-11-02T18:04:49.717Z,991.734
2018-11-02T18:06:50.179Z,991.744
2018-11-02T18:08:50.700Z,991.776
2018-11-02T18:10:49.975Z,991.798
2018-11-02T18:12:50.262Z,991.820
2018-11-02T18:14:50.474Z,991.858
2018-11-02T18:16:49.981Z,991.881
2018-11-02T18:18:50.582Z,991.891
2018-11-02T18:20:50.605Z,991.892
2018-11-02T18:22:49.823Z,991.911
2018-11-02T18:24:50.084Z,991.890
2018-11-02T18:26:50.510Z,991.882
2018-11-02T18:28:50.046Z,991.916
2018-11-02T18:30:50.392Z,991.908
2018-11-02T18:32:49.647Z,991.905
2018-11-02T18:34:50.615Z,991.920
2018-11-02T18:36:49.972Z,991.923
2018-11-02T18:38:50.489Z,991.927
2018-11-02T18:40:49.838Z,991.944
2018-11-02T18:42:50.042Z,991.927
2018-11-02T18:44:50.320Z,991.939
2018-11-02T18:46:49.851Z,991.972
2018-11-02T18:48:50.458Z,992.005
2018-11-02T18:50:50.241Z,991.979
2018-11-02T18:52:50.459Z,991.972
2018-11-02T18:54:49.743Z,991.990
2018-11-02T18:56:50.183Z,992.010
2018-11-02T18:58:50.875Z,992.027
2018-11-02T19:00:49.839Z,992.084
2018-11-02T19:02:50.049Z,992.102
2018-11-02T19:04:49.649Z,992.134
2018-11-02T19:06:50.063Z,992.138
2018-11-02T19:08:50.777Z,992.179
2018-11-02T19:10:49.895Z,992.217
2018-11-02T19:12:50.166Z,992.284
2018-11-02T19:14:50.401Z,992.331
2018-11-02T19:16:49.728Z,992.344
2018-11-02T19:18:50.270Z,992.376
2018-11-02T19:20:49.858Z,992.391
2018-11-02T19:22:49.832Z,992.391
2018-11-02T19:24:49.857Z,992.393
2018-11-02T19:26:50.245Z,992.403
2018-11-02T19:28:51.039Z,992.451
2018-11-02T19:30:49.867Z,992.504
2018-11-02T19:32:50.214Z,992.563
2018-11-02T19:34:51.521Z,992.563
2018-11-02T19:36:49.868Z,992.563
2018-11-02T19:38:50.943Z,992.529
2018-11-02T19:40:49.787Z,992.499
2018-11-02T19:42:50.136Z,992.491
2018-11-02T19:44:50.503Z,992.500
2018-11-02T19:46:49.881Z,992.475
2018-11-02T19:48:50.903Z,992.464
2018-11-02T19:50:50.313Z,992.441
2018-11-02T19:52:50.361Z,992.412
2018-11-02T19:54:49.733Z,992.402
2018-11-02T19:56:50.102Z,992.435
2018-11-02T19:58:51.022Z,992.451
2018-11-02T20:00:50.554Z,992.433
2018-11-02T20:02:50.165Z,992.429
2018-11-02T20:04:49.669Z,992.467
2018-11-02T20:06:50.130Z,992.473
2018-11-02T20:08:51.099Z,992.447
2018-11-02T20:10:49.737Z,992.473
2018-11-02T20:12:49.986Z,992.503
2018-11-02T20:14:50.236Z,992.583
2018-11-02T20:16:49.642Z,992.622
2018-11-02T20:18:50.712Z,992.623
2018-11-02T20:20:50.262Z,992.618
2018-11-02T20:22:50.462Z,992.616
2018-11-02T20:24:49.736Z,992.619
2018-11-02T20:26:50.169Z,992.613
2018-11-02T20:28:50.877Z,992.605
2018-11-02T20:30:49.920Z,992.576
2018-11-02T20:32:50.070Z,992.543
2018-11-02T20:34:49.690Z,992.521
2018-11-02T20:36:50.121Z,992.521
2018-11-02T20:38:50.839Z,992.477
2018-11-02T20:40:50.230Z,992.479
2018-11-02T20:42:50.559Z,992.497
2018-11-02T20:44:49.926Z,992.543
2018-11-02T20:46:50.373Z,992.561
2018-11-02T20:48:50.437Z,992.568
2018-11-02T20:50:49.848Z,992.596
2018-11-02T20:52:50.118Z,992.604
2018-11-02T20:54:50.367Z,992.595
2018-11-02T20:56:49.917Z,992.569
2018-11-02T20:58:50.568Z,992.566
2018-11-02T21:00:50.308Z,992.580
2018-11-02T21:02:51.089Z,992.585
2018-11-02T21:04:50.419Z,992.562
2018-11-02T21:06:49.950Z,992.562
2018-11-02T21:08:51.190Z,992.559
2018-11-02T21:10:50.553Z,992.574
2018-11-02T21:12:49.998Z,992.590
2018-11-02T21:14:50.766Z,992.590
2018-11-02T21:16:50.290Z,992.604
2018-11-02T21:18:50.086Z,992.602
2018-11-02T21:20:50.416Z,992.600
2018-11-02T21:22:50.082Z,992.594
2018-11-02T21:24:50.282Z,992.570
2018-11-02T21:26:49.681Z,992.567
2018-11-02T21:28:50.853Z,992.584
2018-11-02T21:30:50.449Z,992.584
2018-11-02T21:32:49.737Z,992.639
2018-11-02T21:34:50.255Z,992.653
2018-11-02T21:36:49.684Z,992.685
2018-11-02T21:38:50.746Z,992.725
2018-11-02T21:40:49.881Z,992.718
2018-11-02T21:42:50.249Z,992.717
2018-11-02T21:44:50.598Z,992.719
2018-11-02T21:46:50.118Z,992.691
2018-11-02T21:48:50.390Z,992.697
2018-11-02T21:50:49.799Z,992.715
2018-11-02T21:52:50.139Z,992.736
2018-11-02T21:54:50.621Z,992.738
2018-11-02T21:56:50.128Z,992.727
2018-11-02T21:58:50.379Z,992.724
2018-11-02T22:00:49.725Z,992.724
2018-11-02T22:02:49.950Z,992.744
2018-11-02T22:04:49.681Z,992.744
2018-11-02T22:06:50.070Z,992.755
2018-11-02T22:08:50.263Z,992.744
2018-11-02T22:10:50.565Z,992.727
2018-11-02T22:12:49.908Z,992.720
2018-11-02T22:14:50.114Z,992.740
2018-11-02T22:16:50.468Z,992.802
2018-11-02T22:18:50.258Z,992.856
2018-11-02T22:20:50.311Z,992.919
2018-11-02T22:22:50.459Z,992.964
2018-11-02T22:24:50.602Z,992.968
2018-11-02T22:26:49.843Z,992.979
2018-11-02T22:28:50.290Z,992.986
2018-11-02T22:30:50.850Z,993.020
2018-11-02T22:32:50.022Z,993.043
2018-11-02T22:34:49.647Z,993.075
2018-11-02T22:36:50.029Z,993.088
2018-11-02T22:38:50.347Z,993.110
2018-11-02T22:40:49.648Z,993.120
2018-11-02T22:42:49.939Z,993.139
2018-11-02T22:44:50.298Z,993.138
2018-11-02T22:46:50.600Z,993.138
2018-11-02T22:48:49.663Z,993.070
2018-11-02T22:50:49.970Z,993.064
2018-11-02T22:52:50.265Z,993.041
2018-11-02T22:54:50.483Z,993.047
2018-11-02T22:56:50.261Z,993.047
2018-11-02T22:58:50.296Z,993.042
2018-11-02T23:00:50.573Z,993.019
2018-11-02T23:02:49.930Z,993.014
2018-11-02T23:04:50.506Z,993.011
2018-11-02T23:06:50.509Z,993.003
2018-11-02T23:08:50.397Z,993.032
2018-11-02T23:10:50.561Z,993.053
2018-11-02T23:12:49.950Z,993.099
2018-11-02T23:14:50.234Z,993.103
2018-11-02T23:16:49.682Z,993.102
2018-11-02T23:18:49.879Z,993.104
2018-11-02T23:20:50.191Z,993.094
2018-11-02T23:22:50.382Z,993.112
2018-11-02T23:24:49.678Z,993.112
2018-11-02T23:26:50.041Z,993.136
2018-11-02T23:28:50.309Z,993.166
2018-11-02T23:30:50.564Z,993.162
2018-11-02T23:32:49.844Z,993.146
2018-11-02T23:34:50.486Z,993.126
2018-11-02T23:36:49.960Z,993.125
2018-11-02T23:38:50.184Z,993.129
2018-11-02T23:40:50.376Z,993.166
2018-11-02T23:42:50.592Z,993.166
2018-11-02T23:44:50.525Z,993.206
2018-11-02T23:46:50.132Z,993.202
2018-11-02T23:48:50.297Z,993.207
2018-11-02T23:50:50.581Z,993.215
2018-11-02T23:52:49.800Z,993.209
2018-11-02T23:54:50.650Z,993.200
2018-11-02T23:56:50.322Z,993.142
2018-11-02T23:58:50.548Z,993.108
